Time;durP1;ratioP1;P1;durP2;ratioP2;P2;SDS_P1;SDS_P2;PMS_P1;PMS_P2;Temp;Humidity;BMP_temperature;BMP_pressure;BME280_temperature;BME280_humidity;BME280_pressure;Samples;Min_cycle;Max_cycle;Signal;HPM_P1;HPM_P2
2023/10/23 00:04:40;;;;;;;11.90;8.85;;;;;;;8.59;100.00;101056.75;4871706;29;20063;-86
2023/10/23 00:09:46;;;;;;;12.63;9.13;;;;;;;8.64;100.00;101060.59;5732264;23;20060;-86
2023/10/23 00:12:11;;;;;;;14.25;9.73;;;;;;;8.50;100.00;101066.72;4936039;29;20034;-86
2023/10/23 00:14:36;;;;;;;;;;;;;;;8.44;100.00;101054.00;4937923;29;20028;-86
2023/10/23 00:17:02;;;;;;;12.83;8.67;;;;;;;8.50;100.00;101058.66;4935596;29;19957;-86
2023/10/23 00:19:28;;;;;;;13.30;9.20;;;;;;;8.47;100.00;101064.38;4941549;29;20035;-86
2023/10/23 00:21:54;;;;;;;11.85;8.55;;;;;;;8.34;100.00;101059.59;4945453;29;20024;-86
2023/10/23 00:24:19;;;;;;;14.38;9.43;;;;;;;8.28;100.00;101061.13;4935558;29;20031;-85
2023/10/23 00:26:44;;;;;;;;;;;;;;;8.18;100.00;101055.13;4939934;29;20114;-86
2023/10/23 00:29:10;;;;;;;15.77;9.20;;;;;;;8.17;100.00;101054.31;4934978;29;19919;-85
2023/10/23 00:31:35;;;;;;;14.55;9.35;;;;;;;8.12;100.00;101051.31;4939484;29;20034;-86
2023/10/23 00:34:00;;;;;;;;;;;;;;;7.98;100.00;101055.56;4935599;29;20030;-86
2023/10/23 00:36:26;;;;;;;13.20;8.63;;;;;;;7.88;100.00;101063.00;4931668;29;19926;-85
2023/10/23 00:38:52;;;;;;;12.90;8.93;;;;;;;7.76;100.00;101061.72;4934523;29;20023;-86
2023/10/23 00:41:17;;;;;;;;;;;;;;;7.58;100.00;101066.28;4930304;29;20087;-86
2023/10/23 00:43:42;;;;;;;14.43;9.27;;;;;;;7.55;100.00;101071.16;4932374;29;19982;-85
2023/10/23 00:46:13;;;;;;;13.30;9.25;;;;;;;7.53;100.00;101073.16;4934569;29;20035;-86
2023/10/23 00:48:39;;;;;;;19.45;10.85;;;;;;;7.51;100.00;101072.50;4917005;29;20484;-86
2023/10/23 00:51:04;;;;;;;18.08;11.07;;;;;;;7.51;100.00;101069.81;4933002;29;20031;-87
2023/10/23 00:53:31;;;;;;;;;;;;;;;7.59;100.00;101073.31;4937864;29;20027;-86
2023/10/23 00:55:57;;;;;;;15.00;9.53;;;;;;;7.70;100.00;101074.78;4922426;29;20260;-86
2023/10/23 00:58:25;;;;;;;15.95;9.35;;;;;;;7.76;100.00;101072.44;4934410;29;20023;-86
2023/10/23 01:00:50;;;;;;;18.67;10.73;;;;;;;7.72;100.00;101079.97;4935655;29;20032;-86
2023/10/23 01:03:15;;;;;;;17.58;10.70;;;;;;;7.67;100.00;101075.13;4893766;29;20095;-85
2023/10/23 01:05:41;;;;;;;;;;;;;;;7.59;100.00;101072.47;4934832;29;20495;-86
2023/10/23 01:08:06;;;;;;;17.13;9.87;;;;;;;7.55;100.00;101069.28;4935345;29;19981;-86
2023/10/23 01:10:32;;;;;;;19.17;10.90;;;;;;;7.53;100.00;101063.28;4913517;29;20055;-86
2023/10/23 01:12:57;;;;;;;19.67;11.13;;;;;;;7.52;100.00;101064.28;4930744;29;20028;-86
2023/10/23 01:15:23;;;;;;;15.63;9.45;;;;;;;7.42;100.00;101066.31;4935439;29;20028;-86
2023/10/23 01:17:49;;;;;;;;;;;;;;;7.31;100.00;101069.38;4933756;29;20035;-87
2023/10/23 01:20:14;;;;;;;14.95;9.30;;;;;;;7.42;100.00;101067.16;4927926;29;19930;-87
2023/10/23 01:22:39;;;;;;;15.07;9.77;;;;;;;7.57;100.00;101071.81;4934692;29;20032;-86
2023/10/23 01:25:15;;;;;;;14.60;9.52;;;;;;;7.58;100.00;101073.50;4934704;29;20028;-86
2023/10/23 01:27:40;;;;;;;18.35;10.52;;;;;;;7.48;100.00;101067.47;4940393;29;20062;-86
2023/10/23 01:30:08;;;;;;;15.13;9.60;;;;;;;7.35;100.00;101070.69;4958639;28;20168;-86
2023/10/23 01:32:33;;;;;;;14.02;9.13;;;;;;;7.22;100.00;101061.34;4929077;29;20040;-87
2023/10/23 01:35:01;;;;;;;20.35;11.20;;;;;;;7.21;100.00;101070.38;4932689;29;20499;-86
2023/10/23 01:37:27;;;;;;;18.40;9.82;;;;;;;7.17;100.00;101068.22;4934167;29;20038;-86
2023/10/23 01:39:52;;;;;;;13.05;8.93;;;;;;;7.24;100.00;101074.53;4932443;29;20036;-86
2023/10/23 01:42:17;;;;;;;;;;;;;;;7.13;100.00;101071.22;4932954;29;20030;-86
2023/10/23 01:44:43;;;;;;;11.63;8.70;;;;;;;7.19;100.00;101066.19;4934088;29;19918;-87
2023/10/23 01:47:08;;;;;;;;;;;;;;;7.30;100.00;101068.50;4933856;29;20304;-87
2023/10/23 01:49:33;;;;;;;14.13;8.80;;;;;;;7.27;100.00;101080.41;4933231;29;20402;-86
2023/10/23 01:51:58;;;;;;;;;;;;;;;7.20;100.00;101083.94;4931852;29;20472;-86
2023/10/23 01:54:24;;;;;;;16.50;9.37;;;;;;;7.12;100.00;101088.28;4923210;29;19926;-87
2023/10/23 01:59:17;;;;;;;10.68;7.70;;;;;;;6.93;100.00;101096.66;4940648;28;19923;-86
2023/10/23 02:01:43;;;;;;;;;;;;;;;6.84;100.00;101106.50;4944041;28;20032;-86
2023/10/23 02:04:08;;;;;;;13.75;8.13;;;;;;;6.77;100.00;101101.00;4943706;28;19925;-86
2023/10/23 02:06:33;;;;;;;;;;;;;;;6.74;100.00;101103.16;4946724;28;20034;-86
2023/10/23 02:08:59;;;;;;;17.33;8.67;;;;;;;6.70;100.00;101110.69;4937866;28;19926;-86
2023/10/23 02:11:24;;;;;;;;;;;;;;;6.65;100.00;101103.13;4945387;28;20103;-85
2023/10/23 02:13:50;;;;;;;16.47;9.17;;;;;;;6.63;100.00;101109.66;4951568;28;20363;-86
2023/10/23 02:16:15;;;;;;;;;;;;;;;6.60;100.00;101120.69;4940347;28;20391;-86
2023/10/23 02:18:40;;;;;;;15.43;9.03;;;;;;;6.59;100.00;101113.66;4950562;28;19918;-86
2023/10/23 02:34:03;;;;;;;28.40;12.18;;;;;;;7.05;100.00;101123.91;4878582;29;20037;-86
2023/10/23 02:36:53;;;;;;;26.08;12.50;;;;;;;7.15;100.00;101113.06;4896425;29;20039;-86
2023/10/23 02:39:21;;;;;;;27.67;12.63;;;;;;;7.22;100.00;101114.06;4906184;29;20043;-85
2023/10/23 02:42:03;;;;;;;24.13;11.80;;;;;;;7.26;100.00;101110.88;4910378;29;20028;-86
2023/10/23 02:45:07;;;;;;;24.65;11.50;;;;;;;7.35;100.00;101119.75;4897831;29;20495;-86
2023/10/23 02:48:06;;;;;;;26.25;12.48;;;;;;;7.46;100.00;101125.75;4902023;29;20052;-86
2023/10/23 02:50:38;;;;;;;26.77;12.55;;;;;;;7.55;100.00;101130.09;4880042;29;20405;-86
2023/10/23 02:53:05;;;;;;;29.55;12.25;;;;;;;7.58;100.00;101119.88;4898885;29;20032;-86
2023/10/23 02:55:40;;;;;;;27.27;12.32;;;;;;;7.64;100.00;101121.00;4896810;29;20037;-86
2023/10/23 02:58:09;;;;;;;21.27;11.32;;;;;;;7.67;100.00;101128.72;4893225;29;20128;-86
2023/10/23 03:00:43;;;;;;;24.80;12.23;;;;;;;7.75;100.00;101125.19;4895530;29;20021;-86
2023/10/23 03:03:09;;;;;;;30.52;12.45;;;;;;;7.78;100.00;101129.34;4891397;29;20040;-86
2023/10/23 03:06:42;;;;;;;32.08;12.82;;;;;;;7.79;100.00;101118.47;4889202;29;20172;-86
2023/10/23 03:09:07;;;;;;;25.75;12.82;;;;;;;7.85;100.00;101125.00;4889179;29;20128;-86
2023/10/23 03:11:43;;;;;;;24.73;12.15;;;;;;;7.83;100.00;101122.50;4903630;29;20020;-86
2023/10/23 03:14:17;;;;;;;24.50;12.20;;;;;;;7.83;100.00;101127.00;4896613;29;20047;-86
2023/10/23 03:20:22;;;;;;;26.65;12.50;;;;;;;7.76;100.00;101120.69;4891944;29;20111;-86
2023/10/23 03:22:54;;;;;;;24.95;11.63;;;;;;;7.79;100.00;101125.66;4898921;29;20041;-86
2023/10/23 03:26:00;;;;;;;27.85;12.27;;;;;;;7.80;100.00;101133.56;4894332;29;20509;-86
2023/10/23 03:28:25;;;;;;;23.48;11.77;;;;;;;7.89;100.00;101123.66;4872294;29;20447;-86
2023/10/23 03:30:51;;;;;;;23.95;11.95;;;;;;;8.03;100.00;101135.50;4898412;29;20025;-81
2023/10/23 03:33:16;;;;;;;;;;;;;;;8.10;100.00;101138.31;4896282;29;20040;-79
2023/10/23 03:35:44;;;;;;;28.27;12.40;;;;;;;8.15;100.00;101130.56;4897925;29;19923;-79
2023/10/23 03:38:12;;;;;;;26.95;11.88;;;;;;;8.18;100.00;101130.22;4897657;29;20024;-79
2023/10/23 03:40:41;;;;;;;31.42;12.23;;;;;;;8.34;100.00;101135.50;4898961;29;20485;-79
2023/10/23 03:43:06;;;;;;;24.48;12.38;;;;;;;8.37;100.00;101144.22;4898815;29;20040;-79
2023/10/23 03:45:35;;;;;;;27.60;12.73;;;;;;;8.46;100.00;101144.00;4898496;29;20604;-79
2023/10/23 03:48:00;;;;;;;26.48;11.80;;;;;;;8.41;100.00;101145.56;4899397;29;20044;-79
2023/10/23 03:50:25;;;;;;;22.15;11.75;;;;;;;8.38;100.00;101146.75;4900322;29;20095;-79
2023/10/23 03:52:51;;;;;;;;;;;;;;;8.38;100.00;101143.22;4901518;29;20021;-79
2023/10/23 03:55:16;;;;;;;24.07;11.67;;;;;;;8.31;100.00;101135.03;4899936;29;19916;-79
2023/10/23 03:57:44;;;;;;;22.40;11.32;;;;;;;8.28;100.00;101138.91;4900771;29;20052;-79
2023/10/23 04:00:10;;;;;;;26.27;11.60;;;;;;;8.26;100.00;101140.94;4902678;29;20040;-79
2023/10/23 04:02:38;;;;;;;22.50;11.32;;;;;;;8.26;100.00;101148.13;4904012;29;20036;-79
2023/10/23 04:05:04;;;;;;;21.77;11.68;;;;;;;8.24;100.00;101140.28;4894514;29;20551;-79
2023/10/23 04:07:31;;;;;;;21.67;10.80;;;;;;;8.23;100.00;101138.59;4904118;29;20037;-82
2023/10/23 04:09:56;;;;;;;24.25;11.65;;;;;;;8.19;100.00;101145.31;4899721;29;20506;-80
2023/10/23 04:12:24;;;;;;;27.13;11.70;;;;;;;8.18;100.00;101140.97;4901342;29;20035;-80
2023/10/23 04:14:50;;;;;;;27.55;11.73;;;;;;;8.14;100.00;101150.34;4898025;29;20390;-77
2023/10/23 04:17:15;;;;;;;24.38;11.52;;;;;;;8.11;100.00;101153.41;4900010;29;20025;-91
2023/10/23 04:19:40;;;;;;;19.95;10.65;;;;;;;8.11;100.00;101150.72;4903389;29;20037;-83
2023/10/23 04:22:06;;;;;;;;;;;;;;;8.03;100.00;101154.28;4893496;29;20048;-83
2023/10/23 04:24:32;;;;;;;29.38;9.82;;;;;;;8.03;100.00;101148.91;4894134;29;20691;-82
2023/10/23 04:26:57;;;;;;;22.90;11.35;;;;;;;7.95;100.00;101144.38;4896975;29;20035;-80
2023/10/23 04:29:22;;;;;;;;;;;;;;;7.90;100.00;101149.44;4910224;29;20032;-82
2023/10/23 04:31:48;;;;;;;24.73;10.63;;;;;;;7.87;100.00;101157.81;4914763;29;20018;-82
2023/10/23 04:34:14;;;;;;;;;;;;;;;7.77;100.00;101152.66;4899942;29;20634;-82
2023/10/23 04:36:39;;;;;;;18.05;10.10;;;;;;;7.73;100.00;101152.16;4890196;29;19920;-82
2023/10/23 04:39:05;;;;;;;21.25;10.27;;;;;;;7.67;100.00;101144.78;4886544;29;20393;-82
2023/10/23 04:41:30;;;;;;;;;;;;;;;7.62;100.00;101147.13;4897703;29;20072;-82
2023/10/23 04:43:55;;;;;;;21.17;11.10;;;;;;;7.57;100.00;101144.97;4898243;29;20280;-82
2023/10/23 04:46:21;;;;;;;24.38;10.73;;;;;;;7.51;100.00;101134.09;4897757;29;20370;-82
2023/10/23 04:48:46;;;;;;;;;;;;;;;7.47;100.00;101140.81;4895596;29;20028;-82
2023/10/23 04:51:11;;;;;;;22.27;11.07;;;;;;;7.46;100.00;101133.78;4896619;29;19919;-82
2023/10/23 04:53:37;;;;;;;30.85;12.30;;;;;;;7.40;100.00;101138.81;4894812;29;20035;-82
2023/10/23 04:56:03;;;;;;;;;;;;;;;7.40;100.00;101138.81;4893605;29;20373;-82
2023/10/23 04:58:29;;;;;;;38.70;12.40;;;;;;;7.39;100.00;101149.69;4897155;29;19923;-82
2023/10/23 05:00:56;;;;;;;;;;;;;;;7.39;100.00;101149.69;4892226;29;20489;-82
2023/10/23 05:13:17;;;;;;;39.75;11.55;;;;;;;7.52;100.00;101152.69;4877901;29;20136;-82
2023/10/23 05:19:51;;;;;;;24.70;11.18;;;;;;;7.65;100.00;101159.38;4852254;29;20092;-82
2023/10/23 05:22:16;;;;;;;25.55;11.65;;;;;;;7.67;100.00;101163.56;4882177;29;20044;-78
2023/10/23 05:24:45;;;;;;;20.83;10.80;;;;;;;7.68;100.00;101151.84;4944717;28;20102;-83
2023/10/23 05:27:11;;;;;;;22.88;10.90;;;;;;;7.69;100.00;101156.19;4950991;28;20046;-85
2023/10/23 05:29:46;;;;;;;23.83;11.05;;;;;;;7.70;100.00;101155.19;4953314;28;20287;-86
2023/10/23 05:32:11;;;;;;;31.92;11.70;;;;;;;7.69;100.00;101152.66;4952560;28;20035;-86
2023/10/23 05:34:37;;;;;;;22.30;10.73;;;;;;;7.63;100.00;101146.13;4957975;28;20373;-86
2023/10/23 05:37:02;;;;;;;;;;;;;;;7.66;100.00;101148.47;4957001;28;20023;-87
2023/10/23 05:39:28;;;;;;;22.92;10.55;;;;;;;7.63;100.00;101150.69;4953113;28;19997;-87
2023/10/23 05:41:53;;;;;;;;;;;;;;;7.57;100.00;101147.66;4960184;28;20038;-87
2023/10/23 05:44:21;;;;;;;45.67;10.47;;;;;;;7.58;100.00;101140.47;5028986;23;19922;-87
2023/10/23 05:46:46;;;;;;;36.88;10.50;;;;;;;7.51;100.00;101156.38;4965545;28;20023;-89
2023/10/23 05:49:12;;;;;;;51.45;11.77;;;;;;;7.47;100.00;101148.84;4958411;28;20050;-86
2023/10/23 05:51:43;;;;;;;;;;;;;;;7.50;100.00;101148.50;4962830;28;20077;-87
2023/10/23 05:54:09;;;;;;;41.60;11.90;;;;;;;7.51;100.00;101155.53;4971502;28;19921;-86
2023/10/23 05:56:35;;;;;;;57.15;11.23;;;;;;;7.47;100.00;101155.06;4961964;28;20106;-87
2023/10/23 05:59:00;;;;;;;73.55;12.02;;;;;;;7.41;100.00;101167.25;4967000;28;20101;-85
2023/10/23 06:01:26;;;;;;;55.90;11.13;;;;;;;7.51;100.00;101160.91;4967298;28;20027;-84
2023/10/23 06:03:54;;;;;;;;;;;;;;;7.54;100.00;101163.25;4960790;28;20030;-85
2023/10/23 06:06:21;;;;;;;23.30;9.88;;;;;;;7.51;100.00;101155.53;4964143;28;20383;-85
2023/10/23 06:08:47;;;;;;;24.40;9.73;;;;;;;7.51;100.00;101155.53;4954283;28;20033;-85
2023/10/23 06:11:12;;;;;;;19.20;9.75;;;;;;;7.56;100.00;101164.75;4963127;28;20031;-85
2023/10/23 06:13:37;;;;;;;;;;;;;;;7.56;100.00;101163.91;4956724;28;20091;-85
2023/10/23 06:16:07;;;;;;;44.35;10.25;;;;;;;7.46;100.00;101164.09;4964425;28;19922;-85
2023/10/23 06:18:33;;;;;;;37.08;10.00;;;;;;;7.41;100.00;101156.53;4957866;28;20047;-85
2023/10/23 06:21:05;;;;;;;69.15;9.98;;;;;;;7.39;100.00;101169.28;4995305;23;20074;-85
2023/10/23 06:23:35;;;;;;;19.52;9.45;;;;;;;7.34;100.00;101171.63;4952320;28;20384;-85
2023/10/23 06:26:01;;;;;;;40.10;11.00;;;;;;;7.32;100.00;101176.31;4959708;28;20471;-85
2023/10/23 06:28:29;;;;;;;21.45;9.48;;;;;;;7.30;100.00;101175.63;4953568;28;20033;-86
2023/10/23 06:30:57;;;;;;;16.55;9.18;;;;;;;7.30;100.00;101175.63;4962725;28;20054;-85
2023/10/23 06:33:23;;;;;;;44.03;10.85;;;;;;;7.23;100.00;101164.75;4959454;28;20037;-86
2023/10/23 06:35:59;;;;;;;26.90;10.68;;;;;;;7.26;100.00;101174.28;4958560;28;20110;-86
2023/10/23 06:38:25;;;;;;;28.98;9.85;;;;;;;7.30;100.00;101172.13;4953943;28;20027;-85
2023/10/23 06:41:00;;;;;;;23.63;9.68;;;;;;;7.25;100.00;101177.97;4951582;28;20023;-85
2023/10/23 06:43:31;;;;;;;28.77;9.77;;;;;;;7.24;100.00;101184.31;4972771;28;20031;-87
2023/10/23 06:45:59;;;;;;;24.52;9.68;;;;;;;7.23;100.00;101182.69;4965616;28;20472;-86
2023/10/23 06:48:24;;;;;;;15.32;9.70;;;;;;;7.26;100.00;101187.69;4952853;28;20042;-87
2023/10/23 06:50:50;;;;;;;26.73;10.30;;;;;;;7.26;100.00;101185.84;4953132;28;20034;-87
2023/10/23 06:53:15;;;;;;;27.70;9.98;;;;;;;7.30;100.00;101188.19;4946031;28;20474;-86
2023/10/23 06:55:47;;;;;;;;;;;;;;;7.27;100.00;101184.00;4952365;28;20027;-86
2023/10/23 06:58:15;;;;;;;28.10;10.00;;;;;;;7.34;100.00;101182.34;4954467;28;21551;-87
2023/10/23 07:00:40;;;;;;;25.92;10.93;;;;;;;7.34;100.00;101193.06;4949906;28;20027;-86
2023/10/23 07:03:06;;;;;;;24.98;10.65;;;;;;;7.41;100.00;101194.03;4955709;28;20070;-85
2023/10/23 07:05:51;;;;;;;27.30;10.27;;;;;;;7.43;100.00;101192.03;4962466;28;20035;-84
2023/10/23 07:08:17;;;;;;;23.70;10.68;;;;;;;7.52;100.00;101189.38;4959629;28;20937;-84
2023/10/23 07:10:45;;;;;;;25.25;11.02;;;;;;;7.55;100.00;101189.03;4955084;28;20037;-82
2023/10/23 07:13:10;;;;;;;25.58;11.05;;;;;;;7.66;100.00;101185.16;4964646;28;20034;-85
2023/10/23 07:15:38;;;;;;;21.83;11.10;;;;;;;7.71;100.00;101182.81;4948341;28;20044;-86
2023/10/23 07:18:04;;;;;;;19.30;10.30;;;;;;;7.79;100.00;101184.63;4953015;28;20023;-86
2023/10/23 07:20:30;;;;;;;20.90;10.85;;;;;;;7.81;100.00;101186.16;5088376;23;20055;-86
2023/10/23 07:22:55;;;;;;;21.05;10.35;;;;;;;7.82;100.00;101192.34;4961613;28;20039;-86
2023/10/23 07:25:22;;;;;;;;;;;;;;;7.86;100.00;101191.81;4955475;28;20039;-86
2023/10/23 07:27:49;;;;;;;19.17;10.02;;;;;;;7.95;100.00;101189.13;4949731;28;19923;-87
2023/10/23 07:30:14;;;;;;;21.85;10.63;;;;;;;8.01;100.00;101191.13;4962269;28;20054;-85
2023/10/23 07:32:40;;;;;;;18.73;10.60;;;;;;;8.07;100.00;101187.75;4955987;28;20027;-87
2023/10/23 07:35:08;;;;;;;19.25;10.40;;;;;;;8.14;100.00;101188.75;4960934;28;20027;-87
2023/10/23 07:37:36;;;;;;;16.70;10.10;;;;;;;8.26;100.00;101188.38;4960057;28;20114;-87
2023/10/23 07:40:05;;;;;;;17.35;9.75;;;;;;;8.27;100.00;101188.22;4962733;28;20110;-85
2023/10/23 07:42:31;;;;;;;18.75;9.70;;;;;;;8.38;100.00;101189.69;4962190;28;20039;-86
2023/10/23 07:44:57;;;;;;;17.13;10.15;;;;;;;8.35;100.00;101188.16;4953064;28;20030;-86
2023/10/23 07:47:25;;;;;;;16.90;9.95;;;;;;;8.45;100.00;101184.44;4965244;28;20039;-86
2023/10/23 07:49:51;;;;;;;18.40;9.95;;;;;;;8.52;100.00;101185.44;4960368;28;20110;-85
2023/10/23 07:52:19;;;;;;;18.48;10.13;;;;;;;8.60;100.00;101185.41;4962209;28;20030;-86
2023/10/23 07:54:47;;;;;;;18.83;10.98;;;;;;;8.77;100.00;101182.63;4965930;28;20031;-86
2023/10/23 07:57:13;;;;;;;17.52;10.27;;;;;;;8.91;100.00;101194.47;4960954;28;20031;-86
2023/10/23 07:59:48;;;;;;;;;;;;;;;;;;;;;
2023/10/23 08:02:14;;;;;;;17.98;10.57;;;;;;;9.01;100.00;101188.84;4963695;28;20414;-86
2023/10/23 08:04:40;;;;;;;17.10;9.93;;;;;;;9.09;100.00;101196.84;4962809;28;20035;-86
2023/10/23 08:07:05;;;;;;;18.38;10.23;;;;;;;9.16;100.00;101197.81;4960554;28;20035;-86
2023/10/23 08:12:09;;;;;;;17.95;9.75;;;;;;;9.35;100.00;101193.81;5015677;23;20059;-86
2023/10/23 08:15:15;;;;;;;19.25;10.48;;;;;;;9.49;100.00;101200.25;4967966;28;20039;-86
2023/10/23 08:18:17;;;;;;;17.42;10.20;;;;;;;9.84;100.00;101195.22;4957133;28;20031;-86
2023/10/23 08:20:42;;;;;;;16.30;9.93;;;;;;;10.09;100.00;101192.25;4971052;28;20035;-84
2023/10/23 08:23:30;;;;;;;15.05;9.40;;;;;;;10.30;100.00;101193.34;4967846;28;20038;-85
2023/10/23 08:26:01;;;;;;;14.27;8.52;;;;;;;10.43;100.00;101187.34;4971402;28;20019;-85
2023/10/23 08:29:03;;;;;;;11.82;8.95;;;;;;;10.50;100.00;101193.63;4965163;28;20118;-85
2023/10/23 08:31:41;;;;;;;12.43;8.60;;;;;;;10.66;100.00;101191.78;4960573;28;20027;-85
2023/10/23 08:34:07;;;;;;;12.57;8.27;;;;;;;10.69;100.00;101191.38;4967212;28;20030;-85
2023/10/23 08:36:57;;;;;;;11.55;8.95;;;;;;;10.60;100.00;101193.34;4973955;28;20034;-85
2023/10/23 08:39:24;;;;;;;15.20;9.30;;;;;;;10.73;100.00;101189.97;5322879;23;20085;-85
2023/10/23 08:41:53;;;;;;;15.32;9.23;;;;;;;10.75;100.00;101202.25;4988498;28;20061;-86
2023/10/23 08:44:19;;;;;;;16.48;9.75;;;;;;;10.94;100.00;101189.19;4958601;28;20037;-86
2023/10/23 08:46:47;;;;;;;16.45;10.45;;;;;;;10.97;100.00;101188.78;4950092;28;20043;-86
2023/10/23 08:49:16;;;;;;;17.77;10.80;;;;;;;10.95;100.00;101185.44;4981573;28;20030;-86
2023/10/23 08:51:41;;;;;;;17.50;11.38;;;;;;;11.02;100.00;101180.16;4955745;28;20034;-86
2023/10/23 08:54:12;;;;;;;16.23;10.88;;;;;;;11.03;100.00;101181.81;4959343;28;20035;-86
2023/10/23 08:56:42;;;;;;;17.15;10.15;;;;;;;11.17;100.00;101182.75;4987059;28;20458;-86
2023/10/23 08:59:11;;;;;;;19.52;11.02;;;;;;;11.23;100.00;101173.91;4979874;28;20019;-85
2023/10/23 09:01:37;;;;;;;18.27;11.27;;;;;;;11.24;100.00;101175.59;4968296;28;20038;-86
2023/10/23 09:04:02;;;;;;;21.33;12.10;;;;;;;11.30;100.00;101177.50;4982519;28;20073;-85
2023/10/23 09:06:28;;;;;;;15.75;11.43;;;;;;;11.24;100.00;101172.91;4984207;28;20034;-86
2023/10/23 09:08:53;;;;;;;19.63;11.60;;;;;;;11.11;100.00;101167.38;4988729;28;20463;-86
2023/10/23 09:11:22;;;;;;;19.45;12.05;;;;;;;11.25;100.00;101174.56;4968528;28;20047;-86
2023/10/23 09:13:48;;;;;;;20.90;12.60;;;;;;;11.27;100.00;101177.91;4958994;28;20031;-88
2023/10/23 09:16:17;;;;;;;20.15;12.43;;;;;;;11.42;100.00;101168.91;4987016;28;20050;-87
2023/10/23 09:18:51;;;;;;;15.93;12.82;;;;;;;11.45;100.00;101173.91;4978780;28;20072;-86
2023/10/23 09:21:20;;;;;;;20.15;12.98;;;;;;;11.54;100.00;101170.03;4981707;28;20081;-86
2023/10/23 09:24:03;;;;;;;20.60;12.30;;;;;;;11.78;100.00;101167.91;4959807;28;20023;-86
2023/10/23 09:26:28;;;;;;;19.58;12.98;;;;;;;11.79;100.00;101165.00;4980982;28;20041;-85
2023/10/23 09:28:56;;;;;;;21.90;13.82;;;;;;;11.93;100.00;101162.41;4979371;28;20069;-85
2023/10/23 09:31:22;;;;;;;21.35;13.45;;;;;;;12.09;100.00;101164.81;4971758;28;20465;-86
2023/10/23 09:33:49;;;;;;;19.63;12.82;;;;;;;12.45;100.00;101160.22;4985304;28;20034;-85
2023/10/23 09:36:14;;;;;;;22.92;14.60;;;;;;;12.45;100.00;101154.81;4981264;28;20026;-85
2023/10/23 09:38:41;;;;;;;22.95;13.50;;;;;;;12.55;99.52;101152.53;4990723;28;20049;-85
2023/10/23 09:41:10;;;;;;;26.95;14.55;;;;;;;12.58;99.49;101157.53;4976772;28;20043;-85
2023/10/23 09:43:54;;;;;;;28.80;14.43;;;;;;;12.61;98.78;101160.88;4967947;28;20042;-86
2023/10/23 09:49:43;;;;;;;26.08;14.27;;;;;;;12.98;96.71;101162.22;4945189;28;20043;-86
2023/10/23 09:52:14;;;;;;;26.90;13.75;;;;;;;13.01;95.30;101160.97;4936065;28;20110;-86
2023/10/23 09:54:41;;;;;;;27.98;15.65;;;;;;;13.04;95.92;101164.09;4940762;28;20027;-87
2023/10/23 09:57:44;;;;;;;26.33;14.32;;;;;;;12.96;95.78;101160.75;4919668;29;20042;-86
2023/10/23 10:00:21;;;;;;;26.33;13.07;;;;;;;13.04;94.89;101149.75;4954471;28;20043;-87
2023/10/23 10:02:59;;;;;;;26.00;14.32;;;;;;;13.28;94.54;101156.44;4922065;29;20039;-87
2023/10/23 10:08:49;;;;;;;25.85;12.82;;;;;;;13.60;91.71;101159.38;4953811;28;20610;-85
2023/10/23 10:11:15;;;;;;;25.17;12.35;;;;;;;13.69;91.22;101159.13;4937127;29;20110;-86
2023/10/23 10:13:40;;;;;;;23.33;12.80;;;;;;;13.71;91.90;101154.34;4954091;28;20055;-85
2023/10/23 10:30:10;;;;;;;18.30;9.55;;;;;;;14.22;86.93;101150.06;4998572;23;20125;-89
2023/10/23 10:32:48;;;;;;;22.63;10.45;;;;;;;14.08;87.46;101154.69;4975426;28;20038;-88
2023/10/23 10:38:43;;;;;;;19.60;9.07;;;;;;;14.37;86.06;101142.50;4972532;28;20089;-88
2023/10/23 10:41:43;;;;;;;18.98;9.30;;;;;;;14.12;87.17;101138.88;4972333;28;20041;-88
2023/10/23 10:44:46;;;;;;;16.88;8.55;;;;;;;14.31;86.06;101132.50;4955739;28;20027;-86
2023/10/23 10:47:17;;;;;;;19.73;8.98;;;;;;;14.48;85.09;101138.28;4978735;28;20066;-89
2023/10/23 10:49:46;;;;;;;19.63;9.35;;;;;;;14.53;85.72;101135.75;4981109;28;20530;-88
2023/10/23 10:52:27;;;;;;;16.25;8.32;;;;;;;14.80;84.06;101127.50;4978282;28;20122;-88
2023/10/23 10:55:08;;;;;;;16.35;8.63;;;;;;;14.82;83.02;101132.72;4986219;28;20022;-89
2023/10/23 10:57:47;;;;;;;17.58;8.43;;;;;;;14.90;83.16;101116.19;4983525;28;20097;-89
2023/10/23 11:00:13;;;;;;;16.73;8.70;;;;;;;15.01;82.31;101109.22;4975539;28;20026;-89
2023/10/23 11:02:39;;;;;;;14.65;8.75;;;;;;;14.95;83.08;101100.09;4975785;28;20110;-88
2023/10/23 11:05:13;;;;;;;14.45;8.23;;;;;;;14.95;83.07;101093.81;4976965;28;20027;-88
2023/10/23 11:07:39;;;;;;;13.90;8.02;;;;;;;14.92;82.35;101089.69;4977039;28;20030;-88
2023/10/23 11:10:16;;;;;;;16.02;8.30;;;;;;;14.89;82.03;101089.31;4967744;23;20405;-88
2023/10/23 11:12:45;;;;;;;14.73;8.05;;;;;;;15.12;81.17;101088.69;4886237;29;20116;-88
2023/10/23 11:15:15;;;;;;;15.27;8.00;;;;;;;15.32;80.50;101072.22;4897392;29;20052;-88
2023/10/23 11:17:43;;;;;;;15.85;8.25;;;;;;;15.47;79.18;101071.88;4904431;29;20065;-88
2023/10/23 11:23:46;;;;;;;12.82;7.55;;;;;;;15.49;78.05;101066.22;4907119;29;20069;-88
2023/10/23 11:26:44;;;;;;;13.55;7.65;;;;;;;15.50;78.41;101063.31;4876877;29;20076;-88
2023/10/23 11:32:45;;;;;;;12.15;7.15;;;;;;;15.56;78.42;101048.81;4889928;29;20053;-88
2023/10/23 11:35:46;;;;;;;11.63;7.55;;;;;;;15.46;78.94;101052.06;4895979;29;20033;-88
2023/10/23 11:41:03;;;;;;;14.80;7.03;;;;;;;15.21;79.43;101046.66;4873184;29;20055;-87
2023/10/23 11:44:09;;;;;;;13.35;7.15;;;;;;;15.07;79.60;101047.84;4895119;29;20040;-87
2023/10/23 11:46:46;;;;;;;15.77;7.53;;;;;;;15.11;79.84;101043.66;4898113;29;20402;-88
2023/10/23 11:49:12;;;;;;;20.13;7.47;;;;;;;15.16;79.55;101046.53;4885207;29;20025;-88
2023/10/23 11:55:00;;;;;;;10.02;5.80;;;;;;;14.90;80.05;101025.91;4900091;29;20048;-88
2023/10/23 12:00:54;;;;;;;9.63;5.55;;;;;;;15.01;80.56;101020.56;4897339;29;20047;-87
2023/10/23 12:03:41;;;;;;;8.82;5.18;;;;;;;15.09;80.11;101014.03;4896851;29;20663;-87
2023/10/23 12:06:13;;;;;;;9.70;5.03;;;;;;;15.05;79.89;101001.16;4903381;29;20033;-87
2023/10/23 12:11:54;;;;;;;12.55;5.57;;;;;;;15.08;80.98;100995.28;4805929;29;20058;-88
2023/10/23 12:14:48;;;;;;;8.40;5.10;;;;;;;15.10;79.21;100994.00;4868739;29;20045;-88
2023/10/23 12:17:20;;;;;;;12.55;4.70;;;;;;;15.30;77.86;100999.22;4909643;29;20068;-88
2023/10/23 12:32:14;;;;;;;8.75;3.95;;;;;;;15.24;77.77;100966.75;4906038;29;20056;-88
2023/10/23 12:34:42;;;;;;;8.73;3.85;;;;;;;15.08;78.38;100968.16;4878084;29;20025;-88
2023/10/23 12:37:16;;;;;;;10.15;4.03;;;;;;;15.02;78.66;100961.75;4904804;29;20028;-88
2023/10/23 12:43:34;;;;;;;7.70;3.95;;;;;;;14.91;77.97;100952.50;4913030;29;20087;-88
2023/10/23 12:46:32;;;;;;;8.85;3.58;;;;;;;15.09;78.35;100959.81;4906520;29;20029;-88
2023/10/23 12:49:07;;;;;;;9.55;4.20;;;;;;;14.79;80.49;100957.00;4853211;29;20078;-88
2023/10/23 12:51:33;;;;;;;10.32;4.47;;;;;;;15.00;80.68;100956.56;4863483;29;20041;-88
2023/10/23 12:56:33;;;;;;;7.87;4.40;;;;;;;14.94;80.13;100957.47;5150274;23;20059;-88
2023/10/23 12:58:59;;;;;;;6.97;4.50;;;;;;;14.85;81.74;100948.78;4955967;28;20082;-87
2023/10/23 13:01:27;;;;;;;9.05;4.45;;;;;;;14.70;80.99;100948.31;4956702;28;20587;-88
2023/10/23 13:03:52;;;;;;;12.95;4.28;;;;;;;14.75;81.19;100944.94;4961449;28;20034;-88
2023/10/23 13:06:23;;;;;;;12.20;4.93;;;;;;;14.47;81.63;100935.34;5074103;23;20065;-88
2023/10/23 13:09:27;;;;;;;7.90;4.32;;;;;;;14.69;81.36;100925.78;4958740;28;20029;-88
2023/10/23 13:11:52;;;;;;;11.18;4.70;;;;;;;14.44;81.59;100924.97;4957590;28;20407;-88
2023/10/23 13:14:19;;;;;;;7.63;5.25;;;;;;;14.30;82.01;100925.03;4933130;29;20035;-87
2023/10/23 13:16:55;;;;;;;9.45;5.13;;;;;;;14.07;83.52;100931.03;4955008;28;20031;-86
2023/10/23 13:19:29;;;;;;;9.10;5.85;;;;;;;14.08;83.73;100928.13;4965033;28;20019;-87